Главная страница
METAR-TAF:

METAR-TAF

Аэропорты :

Johnstown, Пенсильвания, США

широта: 40-18-58N, долгота: 078-50-02W, высота над уровнем моря: 696 м

Текущие метеонаблюдения

Эта сводка был подготовлена 1 час и 7 минут назад, в 20:54 UTC
Ветер 4 Узел от восточно-северо-восточный
Температура 14°C
Влажность 28%
Давление 1026 hPa
Видимость: 16.1 км
ясное небо

METAR: KJST 192054Z AUTO 06004KT 10SM CLR 14/M04 A3031 RMK AO2 SLP272 T01441039 56012

Время: 18:01 (22:01 UTC)

Прогноз

Эта сводка был подготовлена 4 часа и 13 минут назад, в 17:48 UTC
Прогноз действительный с 19-го 18 UTC до 20-го 18 UTC
Ветер 4 Узел от восточный
Видимость: 10 км
ясное небо
С 20-го 0000 UTC
Ветер 3 Узел переменных направлений
Видимость: 10 км
ясное небо
С 20-го 1300 UTC
Ветер 5 Узел от восточный
Видимость: 10 км
ясное небо

TAF: KJST 191748Z 1918/2018 08004KT P6SM SKC FM200000 VRB03KT P6SM SKC FM201300 09005KT P6SM SKC

Метеонаблюдения и прогнозы для более 4000 аэропортов (сводки METAR и TAF).

Имеющиеся станции представлены на карте желтыми и красными точками.

Чтобы увидеть название станции, наведите на нее мышь.

Затем щелкните, чтобы увидеть метеонаблюдения и метеопрогнозы.

Управление картой: чтобы увеличить масштаб, щелкните зеленые кнопки с черным крестиком; чтобы уменьшить масштаб, щелкните зеленую кнопку с тире; для просмотра соседних карт щелкайте зеленые стрелки.


METAR-TAF: